Stolt Sneland — ZCTY8 — position and weather

sailwx.info

Track history (hours):
 
Tides and Currents Weather Stations Pressure Air Temp Water Temp Dewpoint Dewpoint Depression Visibility Wind Speed Wind Dir Waves Ship Positions

Stolt Sneland

Last reported at 2018-Apr-22 23:03 UTC. Time now 2018-May-21 11:20 UTC.
Position N 29°21' W 094°47'.
Warning: this ship's position is 28 days out of date.

Length 182 m; draft 8.1 m.

Type: Ship (hazmat cat A). MMSI: 319627000.

Date/timePositionNaut miles runAvg speedWind from/ knotsBaromVisibWave heightAir tempDewpointWater temp
2018-Apr-22 23:03N 29°21' W 094°47'112.5
2018-Apr-22 23:00N 29°21' W 094°47'4 8.5
2018-Apr-22 22:30N 29°23' W 094°52'1 0.0
2018-Apr-20 20:16N 29°22' W 094°53'0 0.4
2018-Apr-20 20:00N 29°23' W 094°53'3 6.9
2018-Apr-20 19:31N 29°22' W 094°49'712.4
2018-Apr-20 18:57N 29°21' W 094°42'511.4
2018-Apr-20 18:29N 29°17' W 094°37'4 8.6
2018-Apr-20 17:57N 29°13' W 094°38'3 5.2
2018-Apr-20 17:21N 29°10' W 094°38'0 0.2
2018-Apr-20 16:51N 29°10' W 094°38'0 0.0
2018-Apr-20 16:30N 29°10' W 094°38'0 0.0
2018-Apr-20 15:18N 29°10' W 094°38'0 0.0
2018-Apr-20 14:42N 29°10' W 094°38'0 0.0
2018-Apr-20 14:27N 29°10' W 094°38'0 0.0
2018-Apr-19 07:45N 29°10' W 094°38'0 0.0
2018-Apr-19 07:24N 29°10' W 094°38'0 0.0
2018-Apr-19 07:00N 29°10' W 094°38'0 0.0
2018-Apr-19 06:30N 29°10' W 094°38'0 0.0
2018-Apr-19 05:09N 29°10' W 094°38'0 0.0
2018-Apr-19 04:51N 29°10' W 094°38'0 0.0
2018-Apr-19 04:18N 29°10' W 094°38'0 0.0
2018-Apr-19 03:09N 29°10' W 094°38'0 0.0
2018-Apr-18 15:06N 29°10' W 094°38'0 0.0
2018-Apr-18 14:57N 29°10' W 094°38'0 0.0
2018-Apr-18 13:51N 29°10' W 094°38'0 0.0
2018-Apr-18 12:45N 29°10' W 094°38'0 0.0
2018-Apr-18 12:24N 29°10' W 094°38'0 0.0
2018-Apr-18 11:21N 29°10' W 094°38'0 0.0
2018-Apr-18 10:45N 29°10' W 094°38'0 0.0
2018-Apr-18 10:30N 29°10' W 094°38'0 0.0
2018-Apr-18 09:57N 29°10' W 094°38'0 0.0
2018-Apr-18 09:27N 29°10' W 094°38'0 0.0
2018-Apr-18 08:51N 29°10' W 094°38'0 0.0
2018-Apr-18 08:27N 29°10' W 094°38'0 0.0
2018-Apr-18 07:57N 29°10' W 094°38'0 0.0
2018-Apr-18 07:30N 29°10' W 094°38'0 0.0
2018-Apr-18 07:00N 29°10' W 094°38'0 0.1
2018-Apr-18 06:30N 29°10' W 094°38'3 4.8
2018-Apr-18 05:56N 29°07' W 094°37'510.3
2018-Apr-18 05:26N 29°03' W 094°34'614.3
2018-Apr-18 05:00N 28°60' W 094°40'714.7
2018-Apr-18 04:30N 28°56' W 094°47'714.9
2018-Apr-18 04:00N 28°51' W 094°54'814.8
2018-Apr-18 03:27N 28°47' W 095°02'511.7
2018-Apr-18 03:01N 28°46' W 095°08'813.5
2018-Apr-18 02:25N 28°52' W 095°13'4 8.7
2018-Apr-18 02:00N 28°55' W 095°16'3 0.2
2018-Apr-17 08:01N 28°57' W 095°19'0 0.0
2018-Apr-17 07:49N 28°57' W 095°19'0 0.0
2018-Apr-17 06:58N 28°57' W 095°19'0 0.0
2018-Apr-17 02:38N 28°57' W 095°19'0 0.0
2018-Apr-17 02:30N 28°57' W 095°18'4 5.3
2018-Apr-17 01:49N 28°54' W 095°16'410.9
2018-Apr-17 01:29N 28°51' W 095°13'37 6.6
2018-Apr-16 19:52N 29°21' W 094°46'411.9
2018-Apr-16 19:30N 29°24' W 094°49'611.9
2018-Apr-16 19:00N 29°30' W 094°52'611.8
2018-Apr-16 18:30N 29°34' W 094°56'4 8.4
2018-Apr-16 18:00N 29°37' W 094°60'1 2.4
2018-Apr-16 17:26N 29°37' W 095°01'0 0.0
2018-Apr-16 16:59N 29°37' W 095°01'0 0.0
2018-Apr-16 16:29N 29°37' W 095°01'0 0.0
2018-Apr-16 15:59N 29°37' W 095°01'0 0.0
2018-Apr-16 15:29N 29°37' W 095°01'0 0.0
2018-Apr-16 14:59N 29°37' W 095°01'0 0.0
2018-Apr-16 14:29N 29°37' W 095°01'0 0.0
2018-Apr-16 13:59N 29°37' W 095°01'0 0.0
2018-Apr-16 13:29N 29°37' W 095°01'0 0.0
2018-Apr-16 12:59N 29°37' W 095°01'0 0.0
2018-Apr-16 12:29N 29°37' W 095°01'0 0.0
2018-Apr-16 11:59N 29°37' W 095°01'0 0.0
2018-Apr-16 11:29N 29°37' W 095°01'0 0.0
2018-Apr-16 10:59N 29°37' W 095°01'0 0.0
2018-Apr-16 10:26N 29°37' W 095°01'0 0.0
2018-Apr-16 09:59N 29°37' W 095°01'0 0.0
2018-Apr-16 09:29N 29°37' W 095°01'0 0.0
2018-Apr-16 08:59N 29°37' W 095°01'0 0.0
2018-Apr-16 08:28N 29°37' W 095°01'0 0.0
2018-Apr-16 07:59N 29°37' W 095°01'0 0.0
2018-Apr-16 07:29N 29°37' W 095°01'0 0.0
2018-Apr-16 06:58N 29°37' W 095°01'0 0.0
2018-Apr-16 06:29N 29°37' W 095°01'0 0.0
2018-Apr-16 05:59N 29°37' W 095°01'0 0.0
2018-Apr-16 05:28N 29°37' W 095°01'0 0.0
2018-Apr-16 04:59N 29°37' W 095°01'0 0.0
2018-Apr-16 04:29N 29°37' W 095°01'0 0.0
2018-Apr-16 03:58N 29°37' W 095°01'0 0.0
2018-Apr-16 03:29N 29°37' W 095°01'0 0.0
2018-Apr-16 02:56N 29°37' W 095°01'0 0.0
2018-Apr-16 02:29N 29°37' W 095°01'0 0.0
2018-Apr-16 01:59N 29°37' W 095°01'0 0.0
2018-Apr-16 01:29N 29°37' W 095°01'0 0.0
2018-Apr-16 00:55N 29°37' W 095°01'0 0.0
2018-Apr-16 00:29N 29°37' W 095°01'0 0.0
2018-Apr-15 23:59N 29°37' W 095°01'0 0.0
2018-Apr-15 23:28N 29°37' W 095°01'0 0.0
2018-Apr-15 22:59N 29°37' W 095°01'0 0.0
2018-Apr-15 22:29N 29°37' W 095°01'0 0.0
2018-Apr-15 21:56N 29°37' W 095°01'0 0.0
2018-Apr-15 21:29N 29°37' W 095°01'0 0.0
2018-Apr-15 20:59N 29°37' W 095°01'0 0.0
2018-Apr-15 20:28N 29°37' W 095°01'0 0.0
2018-Apr-15 19:59N 29°37' W 095°01'0 0.0
2018-Apr-15 19:29N 29°37' W 095°01'0 0.0
2018-Apr-15 18:58N 29°37' W 095°01'0 0.0
2018-Apr-15 18:28N 29°37' W 095°01'0 0.0
2018-Apr-15 17:58N 29°37' W 095°01'0 0.0
2018-Apr-15 17:29N 29°37' W 095°01'0 0.0
2018-Apr-15 16:58N 29°37' W 095°01'0 0.0
2018-Apr-15 16:28N 29°37' W 095°01'0 0.0
2018-Apr-15 15:59N 29°37' W 095°01'0 0.0
2018-Apr-15 15:28N 29°37' W 095°01'0 0.0
2018-Apr-15 14:58N 29°37' W 095°01'0 0.0
2018-Apr-15 14:29N 29°37' W 095°01'0 0.0
2018-Apr-15 13:58N 29°37' W 095°01'0 0.0
2018-Apr-15 13:29N 29°37' W 095°01'0 0.0
2018-Apr-15 12:58N 29°37' W 095°01'0 0.0
2018-Apr-15 12:28N 29°37' W 095°01'0 0.0
2018-Apr-15 11:58N 29°37' W 095°01'0 0.0
2018-Apr-15 11:29N 29°37' W 095°01'0 0.0
2018-Apr-15 10:58N 29°37' W 095°01'0 0.0
2018-Apr-15 10:28N 29°37' W 095°01'0 0.0
2018-Apr-15 09:58N 29°37' W 095°01'0 0.0
2018-Apr-15 09:28N 29°37' W 095°01'0 0.0
2018-Apr-15 08:58N 29°37' W 095°01'0 0.0
2018-Apr-15 08:28N 29°37' W 095°01'0 0.0
2018-Apr-15 07:58N 29°37' W 095°01'0 0.0
2018-Apr-15 07:28N 29°37' W 095°01'0 0.0
2018-Apr-15 06:58N 29°37' W 095°01'0 0.0
2018-Apr-15 06:28N 29°37' W 095°01'0 0.0
2018-Apr-15 05:58N 29°37' W 095°01'0 0.0
2018-Apr-15 05:30N 29°37' W 095°01'0 0.9
2018-Apr-15 05:00N 29°37' W 095°01'3 6.9
2018-Apr-15 04:30N 29°36' W 094°57'611.6
2018-Apr-15 04:00N 29°31' W 094°53'611.6
2018-Apr-15 03:30N 29°26' W 094°50'510.7
2018-Apr-15 03:00N 29°21' W 094°47'1110.6
2018-Apr-15 02:01N 29°18' W 094°36'5 0.4
2018-Apr-14 12:43N 29°12' W 094°36'0 0.0
2018-Apr-14 12:22N 29°12' W 094°36'0 0.1
2018-Apr-14 12:00N 29°12' W 094°36'0 0.0
2018-Apr-14 11:16N 29°12' W 094°36'0 0.0
2018-Apr-14 11:00N 29°12' W 094°36'0 0.0
2018-Apr-14 10:24N 29°12' W 094°36'0 0.1
2018-Apr-14 08:00N 29°13' W 094°36'0 0.0
2018-Apr-14 07:15N 29°13' W 094°36'0 0.0
2018-Apr-14 07:00N 29°13' W 094°36'0 0.0
2018-Apr-14 05:51N 29°13' W 094°36'0 0.0
2018-Apr-14 04:45N 29°13' W 094°36'0 0.0
2018-Apr-13 18:12N 29°13' W 094°36'0 0.0
2018-Apr-13 12:54N 29°13' W 094°36'0 0.0
2018-Apr-13 09:33N 29°13' W 094°36'0 0.0
2018-Apr-13 09:21N 29°13' W 094°36'0 0.0
2018-Apr-13 08:45N 29°13' W 094°36'0 0.0
2018-Apr-13 08:21N 29°13' W 094°36'0 0.1
2018-Apr-13 08:00N 29°13' W 094°36'0 0.0
2018-Apr-13 07:30N 29°13' W 094°36'0 0.0
2018-Apr-13 06:57N 29°13' W 094°36'0 0.0
2018-Apr-13 06:30N 29°13' W 094°36'0 0.0
2018-Apr-13 06:00N 29°13' W 094°36'0 0.0
2018-Apr-13 05:30N 29°13' W 094°36'0 0.0
2018-Apr-13 05:00N 29°13' W 094°36'0 0.0
2018-Apr-13 04:27N 29°13' W 094°36'0 0.0
2018-Apr-13 03:57N 29°13' W 094°36'0 0.0
2018-Apr-13 03:27N 29°13' W 094°36'0 0.0
2018-Apr-13 03:00N 29°13' W 094°36'0 0.0
2018-Apr-13 01:48N 29°13' W 094°36'0 0.0
2018-Apr-13 01:30N 29°13' W 094°36'0 0.0
2018-Apr-13 00:57N 29°13' W 094°36'0 0.0
2018-Apr-13 00:30N 29°13' W 094°36'0 0.0
2018-Apr-13 00:00N 29°13' W 094°36'0 0.0
2018-Apr-12 23:27N 29°13' W 094°36'  
Track history (hours):
 
Tides and Currents Weather Stations Pressure Air Temp Water Temp Dewpoint Dewpoint Depression Visibility Wind Speed Wind Dir Waves Ship Positions

Stolt Sneland

Last reported at 2018-Apr-22 23:03 UTC. Time now 2018-May-21 11:20 UTC.
Position N 29°21' W 094°47'.
Warning: this ship's position is 28 days out of date.

Length 182 m; draft 8.1 m.

Type: Ship (hazmat cat A). MMSI: 319627000.

Date/timePositionNaut miles runAvg speedWind from/ knotsBaromVisibWave heightAir tempDewpointWater temp
2018-Apr-22 23:03N 29°21' W 094°47'112.5
2018-Apr-22 23:00N 29°21' W 094°47'4 8.5
2018-Apr-22 22:30N 29°23' W 094°52'1 0.0
2018-Apr-20 20:16N 29°22' W 094°53'0 0.4
2018-Apr-20 20:00N 29°23' W 094°53'3 6.9
2018-Apr-20 19:31N 29°22' W 094°49'712.4
2018-Apr-20 18:57N 29°21' W 094°42'511.4
2018-Apr-20 18:29N 29°17' W 094°37'4 8.6
2018-Apr-20 17:57N 29°13' W 094°38'3 5.2
2018-Apr-20 17:21N 29°10' W 094°38'0 0.2
2018-Apr-20 16:51N 29°10' W 094°38'0 0.0
2018-Apr-20 16:30N 29°10' W 094°38'0 0.0
2018-Apr-20 15:18N 29°10' W 094°38'0 0.0
2018-Apr-20 14:42N 29°10' W 094°38'0 0.0
2018-Apr-20 14:27N 29°10' W 094°38'0 0.0
2018-Apr-19 07:45N 29°10' W 094°38'0 0.0
2018-Apr-19 07:24N 29°10' W 094°38'0 0.0
2018-Apr-19 07:00N 29°10' W 094°38'0 0.0
2018-Apr-19 06:30N 29°10' W 094°38'0 0.0
2018-Apr-19 05:09N 29°10' W 094°38'0 0.0
2018-Apr-19 04:51N 29°10' W 094°38'0 0.0
2018-Apr-19 04:18N 29°10' W 094°38'0 0.0
2018-Apr-19 03:09N 29°10' W 094°38'0 0.0
2018-Apr-18 15:06N 29°10' W 094°38'0 0.0
2018-Apr-18 14:57N 29°10' W 094°38'0 0.0
2018-Apr-18 13:51N 29°10' W 094°38'0 0.0
2018-Apr-18 12:45N 29°10' W 094°38'0 0.0
2018-Apr-18 12:24N 29°10' W 094°38'0 0.0
2018-Apr-18 11:21N 29°10' W 094°38'0 0.0
2018-Apr-18 10:45N 29°10' W 094°38'0 0.0
2018-Apr-18 10:30N 29°10' W 094°38'0 0.0
2018-Apr-18 09:57N 29°10' W 094°38'0 0.0
2018-Apr-18 09:27N 29°10' W 094°38'0 0.0
2018-Apr-18 08:51N 29°10' W 094°38'0 0.0
2018-Apr-18 08:27N 29°10' W 094°38'0 0.0
2018-Apr-18 07:57N 29°10' W 094°38'0 0.0
2018-Apr-18 07:30N 29°10' W 094°38'0 0.0
2018-Apr-18 07:00N 29°10' W 094°38'0 0.1
2018-Apr-18 06:30N 29°10' W 094°38'3 4.8
2018-Apr-18 05:56N 29°07' W 094°37'510.3
2018-Apr-18 05:26N 29°03' W 094°34'614.3
2018-Apr-18 05:00N 28°60' W 094°40'714.7
2018-Apr-18 04:30N 28°56' W 094°47'714.9
2018-Apr-18 04:00N 28°51' W 094°54'814.8
2018-Apr-18 03:27N 28°47' W 095°02'511.7
2018-Apr-18 03:01N 28°46' W 095°08'813.5
2018-Apr-18 02:25N 28°52' W 095°13'4 8.7
2018-Apr-18 02:00N 28°55' W 095°16'3 0.2
2018-Apr-17 08:01N 28°57' W 095°19'0 0.0
2018-Apr-17 07:49N 28°57' W 095°19'0 0.0
2018-Apr-17 06:58N 28°57' W 095°19'0 0.0
2018-Apr-17 02:38N 28°57' W 095°19'0 0.0
2018-Apr-17 02:30N 28°57' W 095°18'4 5.3
2018-Apr-17 01:49N 28°54' W 095°16'410.9
2018-Apr-17 01:29N 28°51' W 095°13'37 6.6
2018-Apr-16 19:52N 29°21' W 094°46'411.9
2018-Apr-16 19:30N 29°24' W 094°49'611.9
2018-Apr-16 19:00N 29°30' W 094°52'611.8
2018-Apr-16 18:30N 29°34' W 094°56'4 8.4
2018-Apr-16 18:00N 29°37' W 094°60'1 2.4
2018-Apr-16 17:26N 29°37' W 095°01'0 0.0
2018-Apr-16 16:59N 29°37' W 095°01'0 0.0
2018-Apr-16 16:29N 29°37' W 095°01'0 0.0
2018-Apr-16 15:59N 29°37' W 095°01'0 0.0
2018-Apr-16 15:29N 29°37' W 095°01'0 0.0
2018-Apr-16 14:59N 29°37' W 095°01'0 0.0
2018-Apr-16 14:29N 29°37' W 095°01'0 0.0
2018-Apr-16 13:59N 29°37' W 095°01'0 0.0
2018-Apr-16 13:29N 29°37' W 095°01'0 0.0
2018-Apr-16 12:59N 29°37' W 095°01'0 0.0
2018-Apr-16 12:29N 29°37' W 095°01'0 0.0
2018-Apr-16 11:59N 29°37' W 095°01'0 0.0
2018-Apr-16 11:29N 29°37' W 095°01'0 0.0
2018-Apr-16 10:59N 29°37' W 095°01'0 0.0
2018-Apr-16 10:26N 29°37' W 095°01'0 0.0
2018-Apr-16 09:59N 29°37' W 095°01'0 0.0
2018-Apr-16 09:29N 29°37' W 095°01'0 0.0
2018-Apr-16 08:59N 29°37' W 095°01'0 0.0
2018-Apr-16 08:28N 29°37' W 095°01'0 0.0
2018-Apr-16 07:59N 29°37' W 095°01'0 0.0
2018-Apr-16 07:29N 29°37' W 095°01'0 0.0
2018-Apr-16 06:58N 29°37' W 095°01'0 0.0
2018-Apr-16 06:29N 29°37' W 095°01'0 0.0
2018-Apr-16 05:59N 29°37' W 095°01'0 0.0
2018-Apr-16 05:28N 29°37' W 095°01'0 0.0
2018-Apr-16 04:59N 29°37' W 095°01'0 0.0
2018-Apr-16 04:29N 29°37' W 095°01'0 0.0
2018-Apr-16 03:58N 29°37' W 095°01'0 0.0
2018-Apr-16 03:29N 29°37' W 095°01'0 0.0
2018-Apr-16 02:56N 29°37' W 095°01'0 0.0
2018-Apr-16 02:29N 29°37' W 095°01'0 0.0
2018-Apr-16 01:59N 29°37' W 095°01'0 0.0
2018-Apr-16 01:29N 29°37' W 095°01'0 0.0
2018-Apr-16 00:55N 29°37' W 095°01'0 0.0
2018-Apr-16 00:29N 29°37' W 095°01'0 0.0
2018-Apr-15 23:59N 29°37' W 095°01'0 0.0
2018-Apr-15 23:28N 29°37' W 095°01'0 0.0
2018-Apr-15 22:59N 29°37' W 095°01'0 0.0
2018-Apr-15 22:29N 29°37' W 095°01'0 0.0
2018-Apr-15 21:56N 29°37' W 095°01'0 0.0
2018-Apr-15 21:29N 29°37' W 095°01'0 0.0
2018-Apr-15 20:59N 29°37' W 095°01'0 0.0
2018-Apr-15 20:28N 29°37' W 095°01'0 0.0
2018-Apr-15 19:59N 29°37' W 095°01'0 0.0
2018-Apr-15 19:29N 29°37' W 095°01'0 0.0
2018-Apr-15 18:58N 29°37' W 095°01'0 0.0
2018-Apr-15 18:28N 29°37' W 095°01'0 0.0
2018-Apr-15 17:58N 29°37' W 095°01'0 0.0
2018-Apr-15 17:29N 29°37' W 095°01'0 0.0
2018-Apr-15 16:58N 29°37' W 095°01'0 0.0
2018-Apr-15 16:28N 29°37' W 095°01'0 0.0
2018-Apr-15 15:59N 29°37' W 095°01'0 0.0
2018-Apr-15 15:28N 29°37' W 095°01'0 0.0
2018-Apr-15 14:58N 29°37' W 095°01'0 0.0
2018-Apr-15 14:29N 29°37' W 095°01'0 0.0
2018-Apr-15 13:58N 29°37' W 095°01'0 0.0
2018-Apr-15 13:29N 29°37' W 095°01'0 0.0
2018-Apr-15 12:58N 29°37' W 095°01'0 0.0
2018-Apr-15 12:28N 29°37' W 095°01'0 0.0
2018-Apr-15 11:58N 29°37' W 095°01'0 0.0
2018-Apr-15 11:29N 29°37' W 095°01'0 0.0
2018-Apr-15 10:58N 29°37' W 095°01'0 0.0
2018-Apr-15 10:28N 29°37' W 095°01'0 0.0
2018-Apr-15 09:58N 29°37' W 095°01'0 0.0
2018-Apr-15 09:28N 29°37' W 095°01'0 0.0
2018-Apr-15 08:58N 29°37' W 095°01'0 0.0
2018-Apr-15 08:28N 29°37' W 095°01'0 0.0
2018-Apr-15 07:58N 29°37' W 095°01'0 0.0
2018-Apr-15 07:28N 29°37' W 095°01'0 0.0
2018-Apr-15 06:58N 29°37' W 095°01'0 0.0
2018-Apr-15 06:28N 29°37' W 095°01'0 0.0
2018-Apr-15 05:58N 29°37' W 095°01'0 0.0
2018-Apr-15 05:30N 29°37' W 095°01'0 0.9
2018-Apr-15 05:00N 29°37' W 095°01'3 6.9
2018-Apr-15 04:30N 29°36' W 094°57'611.6
2018-Apr-15 04:00N 29°31' W 094°53'611.6
2018-Apr-15 03:30N 29°26' W 094°50'510.7
2018-Apr-15 03:00N 29°21' W 094°47'1110.6
2018-Apr-15 02:01N 29°18' W 094°36'5 0.4
2018-Apr-14 12:43N 29°12' W 094°36'0 0.0
2018-Apr-14 12:22N 29°12' W 094°36'0 0.1
2018-Apr-14 12:00N 29°12' W 094°36'0 0.0
2018-Apr-14 11:16N 29°12' W 094°36'0 0.0
2018-Apr-14 11:00N 29°12' W 094°36'0 0.0
2018-Apr-14 10:24N 29°12' W 094°36'0 0.1
2018-Apr-14 08:00N 29°13' W 094°36'0 0.0
2018-Apr-14 07:15N 29°13' W 094°36'0 0.0
2018-Apr-14 07:00N 29°13' W 094°36'0 0.0
2018-Apr-14 05:51N 29°13' W 094°36'0 0.0
2018-Apr-14 04:45N 29°13' W 094°36'0 0.0
2018-Apr-13 18:12N 29°13' W 094°36'0 0.0
2018-Apr-13 12:54N 29°13' W 094°36'0 0.0
2018-Apr-13 09:33N 29°13' W 094°36'0 0.0
2018-Apr-13 09:21N 29°13' W 094°36'0 0.0
2018-Apr-13 08:45N 29°13' W 094°36'0 0.0
2018-Apr-13 08:21N 29°13' W 094°36'0 0.1
2018-Apr-13 08:00N 29°13' W 094°36'0 0.0
2018-Apr-13 07:30N 29°13' W 094°36'0 0.0
2018-Apr-13 06:57N 29°13' W 094°36'0 0.0
2018-Apr-13 06:30N 29°13' W 094°36'0 0.0
2018-Apr-13 06:00N 29°13' W 094°36'0 0.0
2018-Apr-13 05:30N 29°13' W 094°36'0 0.0
2018-Apr-13 05:00N 29°13' W 094°36'0 0.0
2018-Apr-13 04:27N 29°13' W 094°36'0 0.0
2018-Apr-13 03:57N 29°13' W 094°36'0 0.0
2018-Apr-13 03:27N 29°13' W 094°36'0 0.0
2018-Apr-13 03:00N 29°13' W 094°36'0 0.0
2018-Apr-13 01:48N 29°13' W 094°36'0 0.0
2018-Apr-13 01:30N 29°13' W 094°36'0 0.0
2018-Apr-13 00:57N 29°13' W 094°36'0 0.0
2018-Apr-13 00:30N 29°13' W 094°36'0 0.0
2018-Apr-13 00:00N 29°13' W 094°36'0 0.0
2018-Apr-12 23:27N 29°13' W 094°36'  

Dump ship's entire track history